sensor_id;sensor_type;location;lat;lon;timestamp;temperature;humidity
62476;DHT22;50739;45.670;11.936;2022-11-02T06:33:14;14.41;94.72
62476;DHT22;50739;45.670;11.936;2022-11-02T06:38:16;14.39;94.98
62476;DHT22;50739;45.670;11.936;2022-11-02T06:43:19;14.32;95.29
62476;DHT22;50739;45.670;11.936;2022-11-02T06:48:22;14.26;95.20
62476;DHT22;50739;45.670;11.936;2022-11-02T06:53:25;14.20;95.76
62476;DHT22;50739;45.670;11.936;2022-11-02T06:58:27;14.22;95.85
62476;DHT22;50739;45.670;11.936;2022-11-02T07:03:32;14.15;95.77
62476;DHT22;50739;45.670;11.936;2022-11-02T07:08:34;14.19;95.56
62476;DHT22;50739;45.670;11.936;2022-11-02T07:13:36;13.89;95.39
62476;DHT22;50739;45.670;11.936;2022-11-02T07:18:41;13.89;95.14
62476;DHT22;50739;45.670;11.936;2022-11-02T07:23:45;13.82;95.02
62476;DHT22;50739;45.670;11.936;2022-11-02T07:28:47;13.92;94.63
62476;DHT22;50739;45.670;11.936;2022-11-02T07:33:50;13.82;95.00
62476;DHT22;50739;45.670;11.936;2022-11-02T07:38:52;13.83;95.10
62476;DHT22;50739;45.670;11.936;2022-11-02T07:43:54;13.95;95.27
62476;DHT22;50739;45.670;11.936;2022-11-02T07:48:57;13.98;95.08
62476;DHT22;50739;45.670;11.936;2022-11-02T07:53:59;13.99;94.95
62476;DHT22;50739;45.670;11.936;2022-11-02T07:59:02;14.09;94.47
62476;DHT22;50739;45.670;11.936;2022-11-02T08:04:05;14.23;94.27
62476;DHT22;50739;45.670;11.936;2022-11-02T08:09:08;14.20;93.92
62476;DHT22;50739;45.670;11.936;2022-11-02T08:14:09;14.26;94.06
62476;DHT22;50739;45.670;11.936;2022-11-02T08:19:13;14.26;94.14
62476;DHT22;50739;45.670;11.936;2022-11-02T08:24:15;14.46;93.95
62476;DHT22;50739;45.670;11.936;2022-11-02T08:29:17;14.57;93.59
62476;DHT22;50739;45.670;11.936;2022-11-02T08:34:21;14.64;93.16
62476;DHT22;50739;45.670;11.936;2022-11-02T08:39:23;14.67;92.59
62476;DHT22;50739;45.670;11.936;2022-11-02T08:44:26;14.88;92.44
62476;DHT22;50739;45.670;11.936;2022-11-02T08:49:29;15.11;92.26
62476;DHT22;50739;45.670;11.936;2022-11-02T08:54:31;15.25;92.08
62476;DHT22;50739;45.670;11.936;2022-11-02T08:59:33;15.39;92.18
62476;DHT22;50739;45.670;11.936;2022-11-02T09:04:36;15.51;91.22
62476;DHT22;50739;45.670;11.936;2022-11-02T09:09:38;15.74;91.50
62476;DHT22;50739;45.670;11.936;2022-11-02T09:14:41;15.95;90.93
62476;DHT22;50739;45.670;11.936;2022-11-02T09:19:54;16.18;90.58
62476;DHT22;50739;45.670;11.936;2022-11-02T09:25:10;16.53;89.86
62476;DHT22;50739;45.670;11.936;2022-11-02T09:30:13;16.62;88.82
62476;DHT22;50739;45.670;11.936;2022-11-02T09:35:17;16.83;88.47
62476;DHT22;50739;45.670;11.936;2022-11-02T09:40:23;17.06;87.49
62476;DHT22;50739;45.670;11.936;2022-11-02T09:45:26;17.21;87.01
62476;DHT22;50739;45.670;11.936;2022-11-02T09:50:37;17.49;86.36
62476;DHT22;50739;45.670;11.936;2022-11-02T09:55:47;17.82;85.82
62476;DHT22;50739;45.670;11.936;2022-11-02T10:00:51;18.08;83.32
62476;DHT22;50739;45.670;11.936;2022-11-02T10:05:59;18.39;82.69
62476;DHT22;50739;45.670;11.936;2022-11-02T10:11:17;18.69;82.43
62476;DHT22;50739;45.670;11.936;2022-11-02T10:16:29;18.90;81.59
62476;DHT22;50739;45.670;11.936;2022-11-02T10:21:38;18.76;80.70
62476;DHT22;50739;45.670;11.936;2022-11-02T10:26:43;18.83;81.45
62476;DHT22;50739;45.670;11.936;2022-11-02T10:31:45;18.97;80.93
62476;DHT22;50739;45.670;11.936;2022-11-02T10:37:02;19.06;81.09
62476;DHT22;50739;45.670;11.936;2022-11-02T10:42:20;19.30;79.92
62476;DHT22;50739;45.670;11.936;2022-11-02T10:47:29;19.28;79.42
62476;DHT22;50739;45.670;11.936;2022-11-02T10:52:37;18.84;80.92
62476;DHT22;50739;45.670;11.936;2022-11-02T10:57:40;18.90;81.18
62476;DHT22;50739;45.670;11.936;2022-11-02T11:02:42;18.77;81.63
62476;DHT22;50739;45.670;11.936;2022-11-02T11:07:45;18.77;81.21
62476;DHT22;50739;45.670;11.936;2022-11-02T11:12:47;18.69;81.33
62476;DHT22;50739;45.670;11.936;2022-11-02T11:17:50;18.70;81.33
62476;DHT22;50739;45.670;11.936;2022-11-02T11:23:19;18.94;80.67
62476;DHT22;50739;45.670;11.936;2022-11-02T11:28:23;18.94;80.23
62476;DHT22;50739;45.670;11.936;2022-11-02T11:33:25;19.15;80.32
62476;DHT22;50739;45.670;11.936;2022-11-02T11:38:29;19.35;78.92
62476;DHT22;50739;45.670;11.936;2022-11-02T11:43:34;19.32;78.57
62476;DHT22;50739;45.670;11.936;2022-11-02T11:48:39;19.48;78.49
62476;DHT22;50739;45.670;11.936;2022-11-02T11:54:03;19.42;77.96
62476;DHT22;50739;45.670;11.936;2022-11-02T11:59:18;19.24;78.61
62476;DHT22;50739;45.670;11.936;2022-11-02T12:04:31;19.17;79.24
62476;DHT22;50739;45.670;11.936;2022-11-02T12:09:42;19.03;79.53
62476;DHT22;50739;45.670;11.936;2022-11-02T12:15:00;18.93;79.78
62476;DHT22;50739;45.670;11.936;2022-11-02T12:20:17;18.96;79.87
62476;DHT22;50739;45.670;11.936;2022-11-02T12:25:32;18.96;79.92
62476;DHT22;50739;45.670;11.936;2022-11-02T12:30:51;19.04;79.61
62476;DHT22;50739;45.670;11.936;2022-11-02T12:36:08;19.11;79.55
62476;DHT22;50739;45.670;11.936;2022-11-02T12:41:17;19.36;78.92
62476;DHT22;50739;45.670;11.936;2022-11-02T12:46:31;19.49;77.96
62476;DHT22;50739;45.670;11.936;2022-11-02T12:51:39;19.87;77.11
62476;DHT22;50739;45.670;11.936;2022-11-02T12:56:48;19.76;78.05
62476;DHT22;50739;45.670;11.936;2022-11-02T13:02:05;19.59;78.45
62476;DHT22;50739;45.670;11.936;2022-11-02T13:07:12;19.39;79.10
62476;DHT22;50739;45.670;11.936;2022-11-02T13:12:19;19.20;79.05
62476;DHT22;50739;45.670;11.936;2022-11-02T13:17:24;19.17;79.34
62476;DHT22;50739;45.670;11.936;2022-11-02T13:22:32;19.08;80.05
62476;DHT22;50739;45.670;11.936;2022-11-02T13:27:46;19.07;79.93
62476;DHT22;50739;45.670;11.936;2022-11-02T13:32:55;18.99;80.10
62476;DHT22;50739;45.670;11.936;2022-11-02T13:38:02;18.94;80.85
62476;DHT22;50739;45.670;11.936;2022-11-02T13:43:41;18.92;81.14
62476;DHT22;50739;45.670;11.936;2022-11-02T13:48:55;18.89;80.51
62476;DHT22;50739;45.670;11.936;2022-11-02T13:54:02;18.89;80.80
62476;DHT22;50739;45.670;11.936;2022-11-02T13:59:08;18.87;80.93
62476;DHT22;50739;45.670;11.936;2022-11-02T14:04:12;18.73;80.98
62476;DHT22;50739;45.670;11.936;2022-11-02T14:09:29;18.72;80.94
62476;DHT22;50739;45.670;11.936;2022-11-02T14:14:40;18.66;81.50
62476;DHT22;50739;45.670;11.936;2022-11-02T14:19:54;18.58;81.73
62476;DHT22;50739;45.670;11.936;2022-11-02T14:25:15;18.60;82.07
62476;DHT22;50739;45.670;11.936;2022-11-02T14:30:41;18.58;82.43
62476;DHT22;50739;45.670;11.936;2022-11-02T14:35:56;18.58;82.88
62476;DHT22;50739;45.670;11.936;2022-11-02T14:41:15;18.46;83.00
62476;DHT22;50739;45.670;11.936;2022-11-02T14:46:34;18.45;83.27
62476;DHT22;50739;45.670;11.936;2022-11-02T14:51:42;18.38;83.38
62476;DHT22;50739;45.670;11.936;2022-11-02T14:56:51;18.37;83.63
62476;DHT22;50739;45.670;11.936;2022-11-02T15:02:06;18.37;83.83
62476;DHT22;50739;45.670;11.936;2022-11-02T15:07:19;18.38;84.00
62476;DHT22;50739;45.670;11.936;2022-11-02T15:12:34;18.29;85.38
62476;DHT22;50739;45.670;11.936;2022-11-02T15:17:58;18.21;86.41
62476;DHT22;50739;45.670;11.936;2022-11-02T15:23:12;18.21;86.71
62476;DHT22;50739;45.670;11.936;2022-11-02T15:28:20;18.07;87.37
62476;DHT22;50739;45.670;11.936;2022-11-02T15:33:35;18.08;87.27
62476;DHT22;50739;45.670;11.936;2022-11-02T15:38:40;18.02;87.68
62476;DHT22;50739;45.670;11.936;2022-11-02T15:44:17;17.93;88.09
62476;DHT22;50739;45.670;11.936;2022-11-02T15:49:43;17.86;88.02
62476;DHT22;50739;45.670;11.936;2022-11-02T15:55:00;17.80;87.89
62476;DHT22;50739;45.670;11.936;2022-11-02T16:00:18;17.76;88.30
62476;DHT22;50739;45.670;11.936;2022-11-02T16:05:28;17.67;88.72
62476;DHT22;50739;45.670;11.936;2022-11-02T16:10:34;17.66;89.75
62476;DHT22;50739;45.670;11.936;2022-11-02T16:15:42;17.57;90.85
62476;DHT22;50739;45.670;11.936;2022-11-02T16:21:14;17.42;91.45
62476;DHT22;50739;45.670;11.936;2022-11-02T16:26:30;17.39;92.28
62476;DHT22;50739;45.670;11.936;2022-11-02T16:31:43;17.35;92.43
62476;DHT22;50739;45.670;11.936;2022-11-02T16:37:01;17.29;92.80
62476;DHT22;50739;45.670;11.936;2022-11-02T16:42:22;17.24;93.47
62476;DHT22;50739;45.670;11.936;2022-11-02T16:47:37;17.21;92.90
62476;DHT22;50739;45.670;11.936;2022-11-02T16:53:04;17.19;92.96
62476;DHT22;50739;45.670;11.936;2022-11-02T16:58:22;17.11;93.45
62476;DHT22;50739;45.670;11.936;2022-11-02T17:03:38;16.98;93.77
62476;DHT22;50739;45.670;11.936;2022-11-02T17:09:00;17.07;93.84
62476;DHT22;50739;45.670;11.936;2022-11-02T17:14:02;17.04;93.46
62476;DHT22;50739;45.670;11.936;2022-11-02T17:19:44;16.98;93.01
62476;DHT22;50739;45.670;11.936;2022-11-02T17:25:11;16.90;92.82
62476;DHT22;50739;45.670;11.936;2022-11-02T17:30:41;16.87;92.86
62476;DHT22;50739;45.670;11.936;2022-11-02T17:35:45;16.80;92.92
62476;DHT22;50739;45.670;11.936;2022-11-02T17:41:24;16.80;93.31
62476;DHT22;50739;45.670;11.936;2022-11-02T17:46:46;16.79;93.38
62476;DHT22;50739;45.670;11.936;2022-11-02T17:52:07;16.76;93.44
62476;DHT22;50739;45.670;11.936;2022-11-02T17:57:25;16.70;93.53
62476;DHT22;50739;45.670;11.936;2022-11-02T18:02:29;16.66;93.37
62476;DHT22;50739;45.670;11.936;2022-11-02T18:07:38;16.69;93.73
62476;DHT22;50739;45.670;11.936;2022-11-02T18:12:47;16.69;94.05
62476;DHT22;50739;45.670;11.936;2022-11-02T18:17:51;16.63;93.64
62476;DHT22;50739;45.670;11.936;2022-11-02T18:23:03;16.63;93.25
62476;DHT22;50739;45.670;11.936;2022-11-02T18:28:19;16.63;92.14
62476;DHT22;50739;45.670;11.936;2022-11-02T18:33:36;16.62;91.72
62476;DHT22;50739;45.670;11.936;2022-11-02T18:38:40;16.55;91.28
62476;DHT22;50739;45.670;11.936;2022-11-02T18:43:44;16.52;91.52
62476;DHT22;50739;45.670;11.936;2022-11-02T18:48:46;16.52;91.30
62476;DHT22;50739;45.670;11.936;2022-11-02T18:53:55;16.43;92.90
62476;DHT22;50739;45.670;11.936;2022-11-02T18:58:58;16.38;93.19
62476;DHT22;50739;45.670;11.936;2022-11-02T19:04:00;16.28;92.51
62476;DHT22;50739;45.670;11.936;2022-11-02T19:09:03;16.23;93.47
62476;DHT22;50739;45.670;11.936;2022-11-02T19:14:24;16.15;92.74
62476;DHT22;50739;45.670;11.936;2022-11-02T19:19:28;16.16;92.60
62476;DHT22;50739;45.670;11.936;2022-11-02T19:24:30;16.11;92.66
62476;DHT22;50739;45.670;11.936;2022-11-02T19:29:34;16.04;93.82
62476;DHT22;50739;45.670;11.936;2022-11-02T19:34:36;15.97;93.74
62476;DHT22;50739;45.670;11.936;2022-11-02T19:39:38;16.01;93.70
62476;DHT22;50739;45.670;11.936;2022-11-02T19:44:42;16.04;93.58
62476;DHT22;50739;45.670;11.936;2022-11-02T19:49:43;15.93;93.60
62476;DHT22;50739;45.670;11.936;2022-11-02T19:54:45;15.93;93.57
62476;DHT22;50739;45.670;11.936;2022-11-02T19:59:49;15.86;93.51
62476;DHT22;50739;45.670;11.936;2022-11-02T20:04:51;15.87;93.34
62476;DHT22;50739;45.670;11.936;2022-11-02T20:09:52;15.83;93.53
62476;DHT22;50739;45.670;11.936;2022-11-02T20:14:56;15.86;93.43
62476;DHT22;50739;45.670;11.936;2022-11-02T20:19:58;15.74;93.18
62476;DHT22;50739;45.670;11.936;2022-11-02T20:25:00;15.73;93.33
62476;DHT22;50739;45.670;11.936;2022-11-02T20:30:04;15.68;93.28
62476;DHT22;50739;45.670;11.936;2022-11-02T20:35:07;15.61;93.67
62476;DHT22;50739;45.670;11.936;2022-11-02T20:40:11;15.51;93.83
62476;DHT22;50739;45.670;11.936;2022-11-02T20:45:14;15.51;93.97
62476;DHT22;50739;45.670;11.936;2022-11-02T20:50:17;15.50;93.84
62476;DHT22;50739;45.670;11.936;2022-11-02T20:55:19;15.49;93.62
62476;DHT22;50739;45.670;11.936;2022-11-02T21:00:22;15.38;93.50
62476;DHT22;50739;45.670;11.936;2022-11-02T21:05:26;15.40;94.00
62476;DHT22;50739;45.670;11.936;2022-11-02T21:10:28;15.25;94.53
62476;DHT22;50739;45.670;11.936;2022-11-02T21:15:33;15.30;94.21
62476;DHT22;50739;45.670;11.936;2022-11-02T21:20:37;15.21;94.42
62476;DHT22;50739;45.670;11.936;2022-11-02T21:25:39;15.05;94.73
62476;DHT22;50739;45.670;11.936;2022-11-02T21:30:43;15.12;94.35
62476;DHT22;50739;45.670;11.936;2022-11-02T21:35:46;15.09;94.38
62476;DHT22;50739;45.670;11.936;2022-11-02T21:40:48;14.94;94.76
62476;DHT22;50739;45.670;11.936;2022-11-02T21:45:53;14.94;95.02
62476;DHT22;50739;45.670;11.936;2022-11-02T21:51:01;14.91;94.56
62476;DHT22;50739;45.670;11.936;2022-11-02T21:56:05;14.85;94.57
62476;DHT22;50739;45.670;11.936;2022-11-02T22:01:14;14.81;94.52
62476;DHT22;50739;45.670;11.936;2022-11-02T22:06:42;14.81;94.81
62476;DHT22;50739;45.670;11.936;2022-11-02T22:11:44;14.84;94.68
62476;DHT22;50739;45.670;11.936;2022-11-02T22:16:47;14.94;94.73
62476;DHT22;50739;45.670;11.936;2022-11-02T22:21:50;14.94;94.89
62476;DHT22;50739;45.670;11.936;2022-11-02T22:26:52;14.96;94.89
62476;DHT22;50739;45.670;11.936;2022-11-02T22:31:55;14.98;94.79
62476;DHT22;50739;45.670;11.936;2022-11-02T22:36:57;15.01;94.76
62476;DHT22;50739;45.670;11.936;2022-11-02T22:42:19;15.05;94.29
62476;DHT22;50739;45.670;11.936;2022-11-02T22:47:23;15.03;94.50
62476;DHT22;50739;45.670;11.936;2022-11-02T22:52:25;15.03;94.73
62476;DHT22;50739;45.670;11.936;2022-11-02T22:57:27;15.05;94.70
62476;DHT22;50739;45.670;11.936;2022-11-02T23:02:31;15.09;94.84
62476;DHT22;50739;45.670;11.936;2022-11-02T23:07:32;15.06;95.02
62476;DHT22;50739;45.670;11.936;2022-11-02T23:12:35;15.11;95.06
62476;DHT22;50739;45.670;11.936;2022-11-02T23:17:52;15.16;95.21
62476;DHT22;50739;45.670;11.936;2022-11-02T23:22:57;15.13;95.17
62476;DHT22;50739;45.670;11.936;2022-11-02T23:28:16;15.19;95.04
62476;DHT22;50739;45.670;11.936;2022-11-02T23:33:37;15.19;95.08
62476;DHT22;50739;45.670;11.936;2022-11-02T23:38:41;15.22;95.08
62476;DHT22;50739;45.670;11.936;2022-11-02T23:44:00;15.25;94.94
62476;DHT22;50739;45.670;11.936;2022-11-02T23:49:15;15.19;94.85
62476;DHT22;50739;45.670;11.936;2022-11-02T23:54:17;15.16;95.15
62476;DHT22;50739;45.670;11.936;2022-11-02T23:59:41;15.21;95.11
